sensor_id;sensor_type;location;lat;lon;timestamp;temperature;humidity
5850;DHT22;2951;47.712;9.400;2023-04-01T00:00:30;8.40;99.90
5850;DHT22;2951;47.712;9.400;2023-04-01T00:02:57;8.40;99.90
5850;DHT22;2951;47.712;9.400;2023-04-01T00:05:24;8.40;99.90
5850;DHT22;2951;47.712;9.400;2023-04-01T00:07:51;8.30;99.90
5850;DHT22;2951;47.712;9.400;2023-04-01T00:10:18;8.30;99.90
5850;DHT22;2951;47.712;9.400;2023-04-01T00:12:44;8.20;99.90
5850;DHT22;2951;47.712;9.400;2023-04-01T00:15:11;8.20;99.90
5850;DHT22;2951;47.712;9.400;2023-04-01T00:17:38;8.10;99.90
5850;DHT22;2951;47.712;9.400;2023-04-01T00:20:05;8.10;99.90
5850;DHT22;2951;47.712;9.400;2023-04-01T00:22:33;8.10;99.90
5850;DHT22;2951;47.712;9.400;2023-04-01T00:25:00;8.00;99.90
5850;DHT22;2951;47.712;9.400;2023-04-01T00:27:27;8.00;99.90
5850;DHT22;2951;47.712;9.400;2023-04-01T00:29:53;8.00;99.90
5850;DHT22;2951;47.712;9.400;2023-04-01T00:32:20;8.00;99.90
5850;DHT22;2951;47.712;9.400;2023-04-01T00:34:49;8.00;99.90
5850;DHT22;2951;47.712;9.400;2023-04-01T00:37:16;8.00;99.90
5850;DHT22;2951;47.712;9.400;2023-04-01T00:39:43;8.00;99.90
5850;DHT22;2951;47.712;9.400;2023-04-01T00:42:10;7.90;99.90
5850;DHT22;2951;47.712;9.400;2023-04-01T00:44:38;7.90;99.90
5850;DHT22;2951;47.712;9.400;2023-04-01T00:47:04;7.80;99.90
5850;DHT22;2951;47.712;9.400;2023-04-01T00:49:32;7.70;99.90
5850;DHT22;2951;47.712;9.400;2023-04-01T00:52:01;7.70;99.90
5850;DHT22;2951;47.712;9.400;2023-04-01T00:54:28;7.60;99.90
5850;DHT22;2951;47.712;9.400;2023-04-01T00:56:57;7.50;99.90
5850;DHT22;2951;47.712;9.400;2023-04-01T00:59:46;7.50;99.90
5850;DHT22;2951;47.712;9.400;2023-04-01T01:02:14;7.30;99.90
5850;DHT22;2951;47.712;9.400;2023-04-01T01:04:41;7.30;99.90
5850;DHT22;2951;47.712;9.400;2023-04-01T01:10:06;7.20;99.90
5850;DHT22;2951;47.712;9.400;2023-04-01T01:13:17;7.20;99.90
5850;DHT22;2951;47.712;9.400;2023-04-01T01:15:25;7.20;99.90
5850;DHT22;2951;47.712;9.400;2023-04-01T01:28:50;6.90;99.90
5850;DHT22;2951;47.712;9.400;2023-04-01T01:33:55;6.90;99.90
5850;DHT22;2951;47.712;9.400;2023-04-01T01:36:23;6.90;99.90
5850;DHT22;2951;47.712;9.400;2023-04-01T01:38:53;6.90;99.90
5850;DHT22;2951;47.712;9.400;2023-04-01T01:41:21;7.00;99.90
5850;DHT22;2951;47.712;9.400;2023-04-01T01:43:50;7.00;99.90
5850;DHT22;2951;47.712;9.400;2023-04-01T01:46:19;7.00;99.90
5850;DHT22;2951;47.712;9.400;2023-04-01T01:48:47;7.00;99.90
5850;DHT22;2951;47.712;9.400;2023-04-01T01:51:14;7.00;99.90
5850;DHT22;2951;47.712;9.400;2023-04-01T01:53:40;7.00;99.90
5850;DHT22;2951;47.712;9.400;2023-04-01T01:56:07;7.00;99.90
5850;DHT22;2951;47.712;9.400;2023-04-01T01:58:35;6.90;99.90
5850;DHT22;2951;47.712;9.400;2023-04-01T02:01:07;6.90;99.90
5850;DHT22;2951;47.712;9.400;2023-04-01T02:03:36;7.00;99.90
5850;DHT22;2951;47.712;9.400;2023-04-01T02:06:04;7.00;99.90
5850;DHT22;2951;47.712;9.400;2023-04-01T02:08:36;7.00;99.90
5850;DHT22;2951;47.712;9.400;2023-04-01T02:11:05;7.00;99.90
5850;DHT22;2951;47.712;9.400;2023-04-01T02:13:40;7.00;99.90
5850;DHT22;2951;47.712;9.400;2023-04-01T02:16:14;6.90;99.90
5850;DHT22;2951;47.712;9.400;2023-04-01T02:18:41;7.00;99.90
5850;DHT22;2951;47.712;9.400;2023-04-01T02:21:10;7.00;99.90
5850;DHT22;2951;47.712;9.400;2023-04-01T02:23:37;7.00;99.90
5850;DHT22;2951;47.712;9.400;2023-04-01T02:26:05;7.00;99.90
5850;DHT22;2951;47.712;9.400;2023-04-01T02:28:33;7.00;99.90
5850;DHT22;2951;47.712;9.400;2023-04-01T02:31:00;7.00;99.90
5850;DHT22;2951;47.712;9.400;2023-04-01T02:33:29;7.10;99.90
5850;DHT22;2951;47.712;9.400;2023-04-01T02:35:57;7.10;99.90
5850;DHT22;2951;47.712;9.400;2023-04-01T02:38:24;7.20;99.90
5850;DHT22;2951;47.712;9.400;2023-04-01T02:40:52;7.30;99.90
5850;DHT22;2951;47.712;9.400;2023-04-01T02:43:22;7.30;99.90
5850;DHT22;2951;47.712;9.400;2023-04-01T02:45:49;7.40;99.90
5850;DHT22;2951;47.712;9.400;2023-04-01T02:48:16;7.40;99.90
5850;DHT22;2951;47.712;9.400;2023-04-01T02:50:42;7.50;99.90
5850;DHT22;2951;47.712;9.400;2023-04-01T02:53:09;7.50;99.90
5850;DHT22;2951;47.712;9.400;2023-04-01T02:55:36;7.50;99.90
5850;DHT22;2951;47.712;9.400;2023-04-01T02:58:02;7.60;99.90
5850;DHT22;2951;47.712;9.400;2023-04-01T03:00:29;7.60;99.90
5850;DHT22;2951;47.712;9.400;2023-04-01T03:02:56;7.50;99.90
5850;DHT22;2951;47.712;9.400;2023-04-01T03:05:23;7.50;99.90
5850;DHT22;2951;47.712;9.400;2023-04-01T03:07:50;7.50;99.90
5850;DHT22;2951;47.712;9.400;2023-04-01T03:10:17;7.50;99.90
5850;DHT22;2951;47.712;9.400;2023-04-01T03:12:44;7.60;99.90
5850;DHT22;2951;47.712;9.400;2023-04-01T03:15:11;7.50;99.90
5850;DHT22;2951;47.712;9.400;2023-04-01T03:17:39;7.50;99.90
5850;DHT22;2951;47.712;9.400;2023-04-01T03:20:06;7.50;99.90
5850;DHT22;2951;47.712;9.400;2023-04-01T03:22:34;7.50;99.90
5850;DHT22;2951;47.712;9.400;2023-04-01T03:25:02;7.60;99.90
5850;DHT22;2951;47.712;9.400;2023-04-01T03:27:29;7.60;99.90
5850;DHT22;2951;47.712;9.400;2023-04-01T03:29:56;7.60;99.90
5850;DHT22;2951;47.712;9.400;2023-04-01T03:32:23;7.70;99.90
5850;DHT22;2951;47.712;9.400;2023-04-01T03:34:49;7.70;99.90
5850;DHT22;2951;47.712;9.400;2023-04-01T03:37:16;7.60;99.90
5850;DHT22;2951;47.712;9.400;2023-04-01T03:39:43;7.60;99.90
5850;DHT22;2951;47.712;9.400;2023-04-01T03:42:12;7.60;99.90
5850;DHT22;2951;47.712;9.400;2023-04-01T03:44:38;7.50;99.90
5850;DHT22;2951;47.712;9.400;2023-04-01T03:47:05;7.50;99.90
5850;DHT22;2951;47.712;9.400;2023-04-01T03:49:32;7.50;99.90
5850;DHT22;2951;47.712;9.400;2023-04-01T03:51:59;7.50;99.90
5850;DHT22;2951;47.712;9.400;2023-04-01T03:54:25;7.60;99.90
5850;DHT22;2951;47.712;9.400;2023-04-01T03:56:52;7.60;99.90
5850;DHT22;2951;47.712;9.400;2023-04-01T03:59:19;7.50;99.90
5850;DHT22;2951;47.712;9.400;2023-04-01T04:01:46;7.60;99.90
5850;DHT22;2951;47.712;9.400;2023-04-01T04:04:13;7.60;99.90
5850;DHT22;2951;47.712;9.400;2023-04-01T04:06:40;7.60;99.90
5850;DHT22;2951;47.712;9.400;2023-04-01T04:09:07;7.60;99.90
5850;DHT22;2951;47.712;9.400;2023-04-01T04:11:34;7.60;99.90
5850;DHT22;2951;47.712;9.400;2023-04-01T04:14:00;7.60;99.90
5850;DHT22;2951;47.712;9.400;2023-04-01T04:16:28;7.60;99.90
5850;DHT22;2951;47.712;9.400;2023-04-01T04:18:55;7.60;99.90
5850;DHT22;2951;47.712;9.400;2023-04-01T04:21:21;7.60;99.90
5850;DHT22;2951;47.712;9.400;2023-04-01T04:23:48;7.60;99.90
5850;DHT22;2951;47.712;9.400;2023-04-01T04:26:15;7.70;99.90
5850;DHT22;2951;47.712;9.400;2023-04-01T04:28:42;7.70;99.90
5850;DHT22;2951;47.712;9.400;2023-04-01T04:31:08;7.70;99.90
5850;DHT22;2951;47.712;9.400;2023-04-01T04:33:35;7.70;99.90
5850;DHT22;2951;47.712;9.400;2023-04-01T04:36:03;7.70;99.90
5850;DHT22;2951;47.712;9.400;2023-04-01T04:38:30;7.70;99.90
5850;DHT22;2951;47.712;9.400;2023-04-01T04:40:57;7.70;99.90
5850;DHT22;2951;47.712;9.400;2023-04-01T04:43:23;7.70;99.90
5850;DHT22;2951;47.712;9.400;2023-04-01T04:45:50;7.70;99.90
5850;DHT22;2951;47.712;9.400;2023-04-01T04:48:17;7.80;99.90
5850;DHT22;2951;47.712;9.400;2023-04-01T04:50:47;7.80;99.90
5850;DHT22;2951;47.712;9.400;2023-04-01T04:53:16;7.70;99.90
5850;DHT22;2951;47.712;9.400;2023-04-01T04:55:46;7.70;99.90
5850;DHT22;2951;47.712;9.400;2023-04-01T04:58:13;7.80;99.90
5850;DHT22;2951;47.712;9.400;2023-04-01T05:00:40;7.70;99.90
5850;DHT22;2951;47.712;9.400;2023-04-01T05:03:07;7.70;99.90
5850;DHT22;2951;47.712;9.400;2023-04-01T05:05:34;7.70;99.90
5850;DHT22;2951;47.712;9.400;2023-04-01T05:08:00;7.60;99.90
5850;DHT22;2951;47.712;9.400;2023-04-01T05:10:27;7.60;99.90
5850;DHT22;2951;47.712;9.400;2023-04-01T05:12:54;7.50;99.90
5850;DHT22;2951;47.712;9.400;2023-04-01T05:15:21;7.50;99.90
5850;DHT22;2951;47.712;9.400;2023-04-01T05:17:47;7.50;99.90
5850;DHT22;2951;47.712;9.400;2023-04-01T05:20:14;7.40;99.90
5850;DHT22;2951;47.712;9.400;2023-04-01T05:22:42;7.40;99.90
5850;DHT22;2951;47.712;9.400;2023-04-01T05:25:09;7.40;99.90
5850;DHT22;2951;47.712;9.400;2023-04-01T05:27:35;7.40;99.90
5850;DHT22;2951;47.712;9.400;2023-04-01T05:30:02;7.30;99.90
5850;DHT22;2951;47.712;9.400;2023-04-01T05:32:30;7.30;99.90
5850;DHT22;2951;47.712;9.400;2023-04-01T05:34:57;7.30;99.90
5850;DHT22;2951;47.712;9.400;2023-04-01T05:37:23;7.30;99.90
5850;DHT22;2951;47.712;9.400;2023-04-01T05:39:50;7.30;99.90
5850;DHT22;2951;47.712;9.400;2023-04-01T05:42:17;7.30;99.90
5850;DHT22;2951;47.712;9.400;2023-04-01T05:44:43;7.40;99.90
5850;DHT22;2951;47.712;9.400;2023-04-01T05:47:10;7.50;99.90
5850;DHT22;2951;47.712;9.400;2023-04-01T05:49:37;7.50;99.90
5850;DHT22;2951;47.712;9.400;2023-04-01T05:52:03;7.50;99.90
5850;DHT22;2951;47.712;9.400;2023-04-01T05:54:30;7.50;99.90
5850;DHT22;2951;47.712;9.400;2023-04-01T05:56:57;7.40;99.90
5850;DHT22;2951;47.712;9.400;2023-04-01T05:59:23;7.50;99.90
5850;DHT22;2951;47.712;9.400;2023-04-01T06:01:50;7.50;99.90
5850;DHT22;2951;47.712;9.400;2023-04-01T06:04:17;7.50;99.90
5850;DHT22;2951;47.712;9.400;2023-04-01T06:06:44;7.60;99.90
5850;DHT22;2951;47.712;9.400;2023-04-01T06:09:26;7.60;99.90
5850;DHT22;2951;47.712;9.400;2023-04-01T06:12:01;7.60;99.90
5850;DHT22;2951;47.712;9.400;2023-04-01T06:19:58;7.70;99.90
5850;DHT22;2951;47.712;9.400;2023-04-01T06:33:05;7.90;99.90
5850;DHT22;2951;47.712;9.400;2023-04-01T06:35:41;8.00;99.90
5850;DHT22;2951;47.712;9.400;2023-04-01T06:46:00;8.30;99.90
5850;DHT22;2951;47.712;9.400;2023-04-01T06:56:28;8.50;99.90
5850;DHT22;2951;47.712;9.400;2023-04-01T06:58:59;8.60;99.90
5850;DHT22;2951;47.712;9.400;2023-04-01T07:04:14;8.70;99.90
5850;DHT22;2951;47.712;9.400;2023-04-01T07:07:05;8.70;99.90
5850;DHT22;2951;47.712;9.400;2023-04-01T07:09:34;8.80;99.90
5850;DHT22;2951;47.712;9.400;2023-04-01T07:12:12;8.80;99.90
5850;DHT22;2951;47.712;9.400;2023-04-01T07:14:41;8.80;99.90
5850;DHT22;2951;47.712;9.400;2023-04-01T07:17:14;8.90;99.90
5850;DHT22;2951;47.712;9.400;2023-04-01T07:24:54;9.20;99.90
5850;DHT22;2951;47.712;9.400;2023-04-01T07:27:21;9.30;99.90
5850;DHT22;2951;47.712;9.400;2023-04-01T07:29:47;9.40;99.90
5850;DHT22;2951;47.712;9.400;2023-04-01T07:50:01;9.40;99.90
5850;DHT22;2951;47.712;9.400;2023-04-01T07:52:32;9.40;99.90
5850;DHT22;2951;47.712;9.400;2023-04-01T07:55:14;9.40;99.90
5850;DHT22;2951;47.712;9.400;2023-04-01T07:58:31;9.30;99.90
5850;DHT22;2951;47.712;9.400;2023-04-01T08:03:12;9.50;99.90
5850;DHT22;2951;47.712;9.400;2023-04-01T08:05:57;9.50;99.90
5850;DHT22;2951;47.712;9.400;2023-04-01T08:08:43;9.60;99.90
5850;DHT22;2951;47.712;9.400;2023-04-01T08:16:45;9.70;99.90
5850;DHT22;2951;47.712;9.400;2023-04-01T08:21:56;9.90;99.90
5850;DHT22;2951;47.712;9.400;2023-04-01T08:26:53;9.80;99.90
5850;DHT22;2951;47.712;9.400;2023-04-01T08:29:22;9.80;99.90
5850;DHT22;2951;47.712;9.400;2023-04-01T08:34:34;9.30;99.90
5850;DHT22;2951;47.712;9.400;2023-04-01T08:37:05;9.40;99.90
5850;DHT22;2951;47.712;9.400;2023-04-01T08:39:37;9.40;99.90
5850;DHT22;2951;47.712;9.400;2023-04-01T08:42:54;9.40;99.90
5850;DHT22;2951;47.712;9.400;2023-04-01T08:57:54;9.40;99.90
5850;DHT22;2951;47.712;9.400;2023-04-01T09:08:37;9.20;99.90
5850;DHT22;2951;47.712;9.400;2023-04-01T09:28:50;9.10;99.90
5850;DHT22;2951;47.712;9.400;2023-04-01T09:31:40;9.00;99.90
5850;DHT22;2951;47.712;9.400;2023-04-01T09:37:19;8.90;99.90
5850;DHT22;2951;47.712;9.400;2023-04-01T09:42:44;8.90;99.90
5850;DHT22;2951;47.712;9.400;2023-04-01T09:50:39;8.90;99.90
5850;DHT22;2951;47.712;9.400;2023-04-01T09:53:25;8.90;99.90
5850;DHT22;2951;47.712;9.400;2023-04-01T09:56:01;8.90;99.90
5850;DHT22;2951;47.712;9.400;2023-04-01T10:01:12;9.00;99.90
5850;DHT22;2951;47.712;9.400;2023-04-01T10:08:57;9.10;99.90
5850;DHT22;2951;47.712;9.400;2023-04-01T10:14:07;9.10;99.90
5850;DHT22;2951;47.712;9.400;2023-04-01T10:27:09;9.30;99.90
5850;DHT22;2951;47.712;9.400;2023-04-01T10:40:12;9.60;99.90
5850;DHT22;2951;47.712;9.400;2023-04-01T10:52:53;9.60;99.90
5850;DHT22;2951;47.712;9.400;2023-04-01T11:08:50;9.60;99.90
5850;DHT22;2951;47.712;9.400;2023-04-01T11:16:59;9.60;99.90
5850;DHT22;2951;47.712;9.400;2023-04-01T11:27:53;9.60;99.90
5850;DHT22;2951;47.712;9.400;2023-04-01T11:30:28;9.70;99.90
5850;DHT22;2951;47.712;9.400;2023-04-01T11:35:28;9.90;99.90
5850;DHT22;2951;47.712;9.400;2023-04-01T11:40:43;9.90;99.90
5850;DHT22;2951;47.712;9.400;2023-04-01T11:46:00;10.30;99.90
5850;DHT22;2951;47.712;9.400;2023-04-01T11:48:36;10.30;99.90
5850;DHT22;2951;47.712;9.400;2023-04-01T12:01:49;10.70;99.90
5850;DHT22;2951;47.712;9.400;2023-04-01T12:12:23;10.60;99.90
5850;DHT22;2951;47.712;9.400;2023-04-01T12:15:02;10.80;99.90
5850;DHT22;2951;47.712;9.400;2023-04-01T12:17:55;11.10;99.90
5850;DHT22;2951;47.712;9.400;2023-04-01T12:20:38;11.20;99.90
5850;DHT22;2951;47.712;9.400;2023-04-01T12:31:02;11.20;99.90
5850;DHT22;2951;47.712;9.400;2023-04-01T12:41:08;10.70;99.90
5850;DHT22;2951;47.712;9.400;2023-04-01T12:43:52;10.60;99.90
5850;DHT22;2951;47.712;9.400;2023-04-01T12:56:32;10.20;99.90
5850;DHT22;2951;47.712;9.400;2023-04-01T13:01:41;10.00;99.90
5850;DHT22;2951;47.712;9.400;2023-04-01T13:09:21;10.30;99.90
5850;DHT22;2951;47.712;9.400;2023-04-01T13:25:08;10.40;99.90
5850;DHT22;2951;47.712;9.400;2023-04-01T13:27:44;10.30;99.90
5850;DHT22;2951;47.712;9.400;2023-04-01T13:33:10;10.30;99.90
5850;DHT22;2951;47.712;9.400;2023-04-01T13:43:33;10.30;99.90
5850;DHT22;2951;47.712;9.400;2023-04-01T13:48:32;10.20;99.90
5850;DHT22;2951;47.712;9.400;2023-04-01T13:55:54;10.10;99.90
5850;DHT22;2951;47.712;9.400;2023-04-01T14:00:54;10.10;99.90
5850;DHT22;2951;47.712;9.400;2023-04-01T14:19:14;10.20;99.90
5850;DHT22;2951;47.712;9.400;2023-04-01T14:21:58;10.10;99.90
5850;DHT22;2951;47.712;9.400;2023-04-01T14:24:47;10.10;99.90
5850;DHT22;2951;47.712;9.400;2023-04-01T14:30:13;10.20;99.90
5850;DHT22;2951;47.712;9.400;2023-04-01T14:35:17;10.30;99.90
5850;DHT22;2951;47.712;9.400;2023-04-01T14:40:21;10.40;99.90
5850;DHT22;2951;47.712;9.400;2023-04-01T14:45:40;10.40;99.90
5850;DHT22;2951;47.712;9.400;2023-04-01T14:50:46;10.40;99.90
5850;DHT22;2951;47.712;9.400;2023-04-01T14:55:51;10.40;99.90
5850;DHT22;2951;47.712;9.400;2023-04-01T14:58:18;10.40;99.90
5850;DHT22;2951;47.712;9.400;2023-04-01T15:00:47;10.40;99.90
5850;DHT22;2951;47.712;9.400;2023-04-01T15:06:09;10.40;99.90
5850;DHT22;2951;47.712;9.400;2023-04-01T15:13:53;9.80;99.90
5850;DHT22;2951;47.712;9.400;2023-04-01T15:16:25;9.60;99.90
5850;DHT22;2951;47.712;9.400;2023-04-01T15:19:05;9.50;99.90
5850;DHT22;2951;47.712;9.400;2023-04-01T15:31:46;10.00;99.90
5850;DHT22;2951;47.712;9.400;2023-04-01T15:34:17;10.00;99.90
5850;DHT22;2951;47.712;9.400;2023-04-01T15:39:36;10.10;99.90
5850;DHT22;2951;47.712;9.400;2023-04-01T15:50:38;9.80;99.90
5850;DHT22;2951;47.712;9.400;2023-04-01T15:55:28;9.70;99.90
5850;DHT22;2951;47.712;9.400;2023-04-01T16:00:30;9.60;99.90
5850;DHT22;2951;47.712;9.400;2023-04-01T16:08:17;9.50;99.90
5850;DHT22;2951;47.712;9.400;2023-04-01T16:11:03;9.70;99.90
5850;DHT22;2951;47.712;9.400;2023-04-01T16:21:23;9.70;99.90
5850;DHT22;2951;47.712;9.400;2023-04-01T16:23:52;9.70;99.90
5850;DHT22;2951;47.712;9.400;2023-04-01T16:26:24;9.70;99.90
5850;DHT22;2951;47.712;9.400;2023-04-01T16:28:54;9.60;99.90
5850;DHT22;2951;47.712;9.400;2023-04-01T16:36:44;9.70;99.90
5850;DHT22;2951;47.712;9.400;2023-04-01T16:45:15;9.60;99.90
5850;DHT22;2951;47.712;9.400;2023-04-01T16:47:29;9.50;99.90
5850;DHT22;2951;47.712;9.400;2023-04-01T16:50:13;9.50;99.90
5850;DHT22;2951;47.712;9.400;2023-04-01T16:53:01;9.50;99.90
5850;DHT22;2951;47.712;9.400;2023-04-01T16:55:49;9.50;99.90
5850;DHT22;2951;47.712;9.400;2023-04-01T17:03:57;9.60;99.90
5850;DHT22;2951;47.712;9.400;2023-04-01T17:06:31;9.60;99.90
5850;DHT22;2951;47.712;9.400;2023-04-01T17:12:05;9.50;99.90
5850;DHT22;2951;47.712;9.400;2023-04-01T17:17:10;9.50;99.90
5850;DHT22;2951;47.712;9.400;2023-04-01T17:19:45;9.50;99.90
5850;DHT22;2951;47.712;9.400;2023-04-01T17:22:33;9.40;99.90
5850;DHT22;2951;47.712;9.400;2023-04-01T17:25:14;9.30;99.90
5850;DHT22;2951;47.712;9.400;2023-04-01T17:30:30;9.20;99.90
5850;DHT22;2951;47.712;9.400;2023-04-01T17:35:29;9.10;99.90
5850;DHT22;2951;47.712;9.400;2023-04-01T17:40:39;8.90;99.90
5850;DHT22;2951;47.712;9.400;2023-04-01T17:45:53;8.70;99.90
5850;DHT22;2951;47.712;9.400;2023-04-01T17:48:32;8.70;99.90
5850;DHT22;2951;47.712;9.400;2023-04-01T17:53:36;8.60;99.90
5850;DHT22;2951;47.712;9.400;2023-04-01T17:56:14;8.60;99.90
5850;DHT22;2951;47.712;9.400;2023-04-01T17:59:45;8.60;99.90
5850;DHT22;2951;47.712;9.400;2023-04-01T18:01:40;8.60;99.90
5850;DHT22;2951;47.712;9.400;2023-04-01T18:17:18;8.60;99.90
5850;DHT22;2951;47.712;9.400;2023-04-01T18:19:54;8.50;99.90
5850;DHT22;2951;47.712;9.400;2023-04-01T18:22:36;8.50;99.90
5850;DHT22;2951;47.712;9.400;2023-04-01T18:25:16;8.50;99.90
5850;DHT22;2951;47.712;9.400;2023-04-01T18:27:46;8.50;99.90
5850;DHT22;2951;47.712;9.400;2023-04-01T18:30:15;8.50;99.90
5850;DHT22;2951;47.712;9.400;2023-04-01T18:40:29;8.30;99.90
5850;DHT22;2951;47.712;9.400;2023-04-01T18:46:05;8.20;99.90
5850;DHT22;2951;47.712;9.400;2023-04-01T18:48:49;8.20;99.90
5850;DHT22;2951;47.712;9.400;2023-04-01T18:51:39;8.20;99.90
5850;DHT22;2951;47.712;9.400;2023-04-01T18:56:37;8.10;99.90
5850;DHT22;2951;47.712;9.400;2023-04-01T19:04:33;8.00;99.90
5850;DHT22;2951;47.712;9.400;2023-04-01T19:09:48;7.90;99.90
5850;DHT22;2951;47.712;9.400;2023-04-01T19:25:27;7.90;99.90
5850;DHT22;2951;47.712;9.400;2023-04-01T19:28:19;7.90;99.90
5850;DHT22;2951;47.712;9.400;2023-04-01T19:35:47;7.70;99.90
5850;DHT22;2951;47.712;9.400;2023-04-01T19:38:30;7.80;99.90
5850;DHT22;2951;47.712;9.400;2023-04-01T19:41:19;7.70;99.90
5850;DHT22;2951;47.712;9.400;2023-04-01T19:46:39;7.60;99.90
5850;DHT22;2951;47.712;9.400;2023-04-01T19:51:33;7.50;99.90
5850;DHT22;2951;47.712;9.400;2023-04-01T19:56:34;7.40;99.90
5850;DHT22;2951;47.712;9.400;2023-04-01T20:04:13;7.30;99.90
5850;DHT22;2951;47.712;9.400;2023-04-01T20:11:56;7.20;99.90
5850;DHT22;2951;47.712;9.400;2023-04-01T20:17:02;7.20;99.90
5850;DHT22;2951;47.712;9.400;2023-04-01T20:19:41;7.20;99.90
5850;DHT22;2951;47.712;9.400;2023-04-01T20:22:16;7.30;99.90
5850;DHT22;2951;47.712;9.400;2023-04-01T20:24:45;7.30;99.90
5850;DHT22;2951;47.712;9.400;2023-04-01T20:32:10;7.20;99.90
5850;DHT22;2951;47.712;9.400;2023-04-01T20:52:20;7.20;99.90
5850;DHT22;2951;47.712;9.400;2023-04-01T21:08:20;7.00;99.90
5850;DHT22;2951;47.712;9.400;2023-04-01T21:10:56;7.00;99.90
5850;DHT22;2951;47.712;9.400;2023-04-01T21:13:27;7.00;99.90
5850;DHT22;2951;47.712;9.400;2023-04-01T22:12:54;6.30;99.90
5850;DHT22;2951;47.712;9.400;2023-04-01T22:15:45;6.30;99.90
5850;DHT22;2951;47.712;9.400;2023-04-01T22:18:15;6.30;99.90
5850;DHT22;2951;47.712;9.400;2023-04-01T22:20:54;6.30;99.90
5850;DHT22;2951;47.712;9.400;2023-04-01T22:29:07;6.40;99.90
5850;DHT22;2951;47.712;9.400;2023-04-01T22:31:39;6.40;99.90
5850;DHT22;2951;47.712;9.400;2023-04-01T22:34:15;6.40;99.90
5850;DHT22;2951;47.712;9.400;2023-04-01T22:39:14;6.30;99.90
5850;DHT22;2951;47.712;9.400;2023-04-01T22:44:22;6.30;99.90
5850;DHT22;2951;47.712;9.400;2023-04-01T22:47:00;6.30;99.90
5850;DHT22;2951;47.712;9.400;2023-04-01T22:49:46;6.30;99.90
5850;DHT22;2951;47.712;9.400;2023-04-01T22:52:20;6.20;99.90
5850;DHT22;2951;47.712;9.400;2023-04-01T22:54:54;6.10;99.90
5850;DHT22;2951;47.712;9.400;2023-04-01T23:00:10;6.00;99.90
5850;DHT22;2951;47.712;9.400;2023-04-01T23:05:23;5.90;99.90
5850;DHT22;2951;47.712;9.400;2023-04-01T23:08:39;5.90;99.90
5850;DHT22;2951;47.712;9.400;2023-04-01T23:10:52;5.90;99.90
5850;DHT22;2951;47.712;9.400;2023-04-01T23:13:22;5.80;99.90
5850;DHT22;2951;47.712;9.400;2023-04-01T23:15:51;5.80;99.90
5850;DHT22;2951;47.712;9.400;2023-04-01T23:23:52;6.00;99.90
5850;DHT22;2951;47.712;9.400;2023-04-01T23:26:21;6.10;99.90
5850;DHT22;2951;47.712;9.400;2023-04-01T23:28:50;6.40;99.90
5850;DHT22;2951;47.712;9.400;2023-04-01T23:31:37;6.50;99.90
5850;DHT22;2951;47.712;9.400;2023-04-01T23:36:44;6.70;99.90
5850;DHT22;2951;47.712;9.400;2023-04-01T23:39:19;6.80;99.90
5850;DHT22;2951;47.712;9.400;2023-04-01T23:41:47;6.70;99.90
5850;DHT22;2951;47.712;9.400;2023-04-01T23:44:14;6.70;99.90
5850;DHT22;2951;47.712;9.400;2023-04-01T23:46:42;6.70;99.90
5850;DHT22;2951;47.712;9.400;2023-04-01T23:49:14;6.60;99.90
5850;DHT22;2951;47.712;9.400;2023-04-01T23:51:53;6.50;99.90
5850;DHT22;2951;47.712;9.400;2023-04-01T23:54:33;6.50;99.90
5850;DHT22;2951;47.712;9.400;2023-04-01T23:57:03;6.50;99.90
5850;DHT22;2951;47.712;9.400;2023-04-01T23:59:33;6.50;99.90
